Hovedside
METAR-TAF:

METAR-TAF

Lufthavner :

Pärnu lufthavn

Pärnu, Estland

breddegrad: 58-25-09N, lengdegrad: 024-28-22E, høyde over havet: 14 m

Gjeldene værobservasjon

Denne rapporten ble laget for 41 minutter siden, klokken 16:50 UTC
Vind 10 kt fra Nordvest, skiftende mellom Vest-nordvest og Nord
Temperatur 23°C
Luftfuktighet 47%
Trykk 1016 hPa
Sikt 10 km eller mer

METAR: EEPU 241650Z AUTO 32010KT 290V350 9999 NCD 23/11 Q1016

Tid: 20:31 (17:31 UTC)


TAF: fraværende

Værobservasjoner og værvarsel for over 4000 flyplasser (METAR- og TAF-rapporter).

Tilgjengelige stasjoner er representert av de røde og gule prikkene på kartet.

Hold musepekeren over prikken for å se navnet på stasjonen.

Klikk så for å se værobservasjoner og -varsler.

For å forandre kartet kan du klikke på den grønne knappen med svart kryss for å zoome inn, på den grønne knappen med strek for å zoome ut, eller på de grønne pilene for å se tilstøtende kart.


METAR-TAF: